sensor_id;sensor_type;location;lat;lon;timestamp;temperature;humidity
736;DHT22;352;48.626;9.238;2023-06-22T00:00:00;22.10;99.90
736;DHT22;352;48.626;9.238;2023-06-22T00:02:26;22.00;99.90
736;DHT22;352;48.626;9.238;2023-06-22T00:04:53;22.00;99.90
736;DHT22;352;48.626;9.238;2023-06-22T00:07:20;22.00;99.90
736;DHT22;352;48.626;9.238;2023-06-22T00:09:48;22.00;99.90
736;DHT22;352;48.626;9.238;2023-06-22T00:12:14;21.90;99.90
736;DHT22;352;48.626;9.238;2023-06-22T00:14:41;21.80;99.90
736;DHT22;352;48.626;9.238;2023-06-22T00:17:08;21.80;99.90
736;DHT22;352;48.626;9.238;2023-06-22T00:19:34;21.80;99.90
736;DHT22;352;48.626;9.238;2023-06-22T00:22:02;21.70;99.90
736;DHT22;352;48.626;9.238;2023-06-22T00:24:28;21.70;99.90
736;DHT22;352;48.626;9.238;2023-06-22T00:26:56;21.80;99.90
736;DHT22;352;48.626;9.238;2023-06-22T00:29:23;21.80;99.90
736;DHT22;352;48.626;9.238;2023-06-22T00:31:50;21.80;99.90
736;DHT22;352;48.626;9.238;2023-06-22T00:34:17;21.80;99.90
736;DHT22;352;48.626;9.238;2023-06-22T00:36:43;21.80;99.90
736;DHT22;352;48.626;9.238;2023-06-22T00:39:10;21.80;99.90
736;DHT22;352;48.626;9.238;2023-06-22T00:41:37;21.80;99.90
736;DHT22;352;48.626;9.238;2023-06-22T00:44:05;21.70;99.90
736;DHT22;352;48.626;9.238;2023-06-22T00:46:32;21.70;99.90
736;DHT22;352;48.626;9.238;2023-06-22T00:48:59;21.60;99.90
736;DHT22;352;48.626;9.238;2023-06-22T00:51:26;21.60;99.90
736;DHT22;352;48.626;9.238;2023-06-22T00:53:53;21.60;99.90
736;DHT22;352;48.626;9.238;2023-06-22T00:56:20;21.50;99.90
736;DHT22;352;48.626;9.238;2023-06-22T00:58:50;21.40;99.90
736;DHT22;352;48.626;9.238;2023-06-22T01:01:19;21.40;99.90
736;DHT22;352;48.626;9.238;2023-06-22T01:03:49;21.50;99.90
736;DHT22;352;48.626;9.238;2023-06-22T01:06:21;21.50;99.90
736;DHT22;352;48.626;9.238;2023-06-22T01:09:00;21.50;99.90
736;DHT22;352;48.626;9.238;2023-06-22T01:11:35;21.50;99.90
736;DHT22;352;48.626;9.238;2023-06-22T01:14:07;21.50;99.90
736;DHT22;352;48.626;9.238;2023-06-22T01:16:41;21.50;99.90
736;DHT22;352;48.626;9.238;2023-06-22T01:19:20;21.50;99.90
736;DHT22;352;48.626;9.238;2023-06-22T01:21:52;21.40;99.90
736;DHT22;352;48.626;9.238;2023-06-22T01:24:23;21.40;99.90
736;DHT22;352;48.626;9.238;2023-06-22T01:26:57;21.50;99.90
736;DHT22;352;48.626;9.238;2023-06-22T01:29:29;21.40;99.90
736;DHT22;352;48.626;9.238;2023-06-22T01:31:57;21.40;99.90
736;DHT22;352;48.626;9.238;2023-06-22T01:34:24;21.40;99.90
736;DHT22;352;48.626;9.238;2023-06-22T01:36:52;21.30;99.90
736;DHT22;352;48.626;9.238;2023-06-22T01:39:19;21.30;99.90
736;DHT22;352;48.626;9.238;2023-06-22T01:41:47;21.40;99.90
736;DHT22;352;48.626;9.238;2023-06-22T01:44:15;21.40;99.90
736;DHT22;352;48.626;9.238;2023-06-22T01:46:44;21.40;99.90
736;DHT22;352;48.626;9.238;2023-06-22T01:49:11;21.40;99.90
736;DHT22;352;48.626;9.238;2023-06-22T01:51:39;21.40;99.90
736;DHT22;352;48.626;9.238;2023-06-22T01:54:06;21.40;99.90
736;DHT22;352;48.626;9.238;2023-06-22T01:56:34;21.40;99.90
736;DHT22;352;48.626;9.238;2023-06-22T01:59:05;21.30;99.90
736;DHT22;352;48.626;9.238;2023-06-22T02:01:42;21.30;99.90
736;DHT22;352;48.626;9.238;2023-06-22T02:04:13;21.30;99.90
736;DHT22;352;48.626;9.238;2023-06-22T02:06:45;21.20;99.90
736;DHT22;352;48.626;9.238;2023-06-22T02:09:16;21.20;99.90
736;DHT22;352;48.626;9.238;2023-06-22T02:11:45;21.20;99.90
736;DHT22;352;48.626;9.238;2023-06-22T02:14:13;21.10;99.90
736;DHT22;352;48.626;9.238;2023-06-22T02:16:41;21.10;99.90
736;DHT22;352;48.626;9.238;2023-06-22T02:19:09;21.20;99.90
736;DHT22;352;48.626;9.238;2023-06-22T02:21:36;21.10;99.90
736;DHT22;352;48.626;9.238;2023-06-22T02:24:04;21.10;99.90
736;DHT22;352;48.626;9.238;2023-06-22T02:26:31;21.10;99.90
736;DHT22;352;48.626;9.238;2023-06-22T02:28:59;21.20;99.90
736;DHT22;352;48.626;9.238;2023-06-22T02:31:26;21.20;99.90
736;DHT22;352;48.626;9.238;2023-06-22T02:33:56;21.20;99.90
736;DHT22;352;48.626;9.238;2023-06-22T02:36:24;21.10;99.90
736;DHT22;352;48.626;9.238;2023-06-22T02:38:52;21.10;99.90
736;DHT22;352;48.626;9.238;2023-06-22T02:41:19;21.10;99.90
736;DHT22;352;48.626;9.238;2023-06-22T02:43:47;21.10;99.90
736;DHT22;352;48.626;9.238;2023-06-22T02:46:14;21.10;99.90
736;DHT22;352;48.626;9.238;2023-06-22T02:48:40;21.00;99.90
736;DHT22;352;48.626;9.238;2023-06-22T02:51:07;20.90;99.90
736;DHT22;352;48.626;9.238;2023-06-22T02:53:35;20.90;99.90
736;DHT22;352;48.626;9.238;2023-06-22T02:56:02;21.00;99.90
736;DHT22;352;48.626;9.238;2023-06-22T02:58:31;21.00;99.90
736;DHT22;352;48.626;9.238;2023-06-22T03:00:58;20.90;99.90
736;DHT22;352;48.626;9.238;2023-06-22T03:03:30;20.90;99.90
736;DHT22;352;48.626;9.238;2023-06-22T03:05:56;20.90;99.90
736;DHT22;352;48.626;9.238;2023-06-22T03:08:23;20.90;99.90
736;DHT22;352;48.626;9.238;2023-06-22T03:10:51;20.90;99.90
736;DHT22;352;48.626;9.238;2023-06-22T03:13:18;20.90;99.90
736;DHT22;352;48.626;9.238;2023-06-22T03:15:44;20.90;99.90
736;DHT22;352;48.626;9.238;2023-06-22T03:18:11;20.80;99.90
736;DHT22;352;48.626;9.238;2023-06-22T03:20:38;20.80;99.90
736;DHT22;352;48.626;9.238;2023-06-22T03:23:05;20.80;99.90
736;DHT22;352;48.626;9.238;2023-06-22T03:25:32;20.70;99.90
736;DHT22;352;48.626;9.238;2023-06-22T03:28:00;20.70;99.90
736;DHT22;352;48.626;9.238;2023-06-22T03:30:27;20.70;99.90
736;DHT22;352;48.626;9.238;2023-06-22T03:32:53;20.60;99.90
736;DHT22;352;48.626;9.238;2023-06-22T03:35:20;20.60;99.90
736;DHT22;352;48.626;9.238;2023-06-22T03:37:47;20.60;99.90
736;DHT22;352;48.626;9.238;2023-06-22T03:40:13;20.60;99.90
736;DHT22;352;48.626;9.238;2023-06-22T03:42:40;20.50;99.90
736;DHT22;352;48.626;9.238;2023-06-22T03:45:09;20.50;99.90
736;DHT22;352;48.626;9.238;2023-06-22T03:47:36;20.50;99.90
736;DHT22;352;48.626;9.238;2023-06-22T03:50:03;20.60;99.90
736;DHT22;352;48.626;9.238;2023-06-22T03:52:31;20.60;99.90
736;DHT22;352;48.626;9.238;2023-06-22T03:54:58;20.60;99.90
736;DHT22;352;48.626;9.238;2023-06-22T03:57:24;20.60;99.90
736;DHT22;352;48.626;9.238;2023-06-22T03:59:51;20.50;99.90
736;DHT22;352;48.626;9.238;2023-06-22T04:02:20;20.50;99.90
736;DHT22;352;48.626;9.238;2023-06-22T04:04:46;20.50;99.90
736;DHT22;352;48.626;9.238;2023-06-22T04:07:13;20.50;99.90
736;DHT22;352;48.626;9.238;2023-06-22T04:09:40;20.60;99.90
736;DHT22;352;48.626;9.238;2023-06-22T04:12:07;20.60;99.90
736;DHT22;352;48.626;9.238;2023-06-22T04:14:34;20.70;99.90
736;DHT22;352;48.626;9.238;2023-06-22T04:17:01;20.60;99.90
736;DHT22;352;48.626;9.238;2023-06-22T04:19:29;20.70;99.90
736;DHT22;352;48.626;9.238;2023-06-22T04:21:56;20.70;99.90
736;DHT22;352;48.626;9.238;2023-06-22T04:24:22;20.70;99.90
736;DHT22;352;48.626;9.238;2023-06-22T04:26:49;20.70;99.90
736;DHT22;352;48.626;9.238;2023-06-22T04:29:20;20.70;99.90
736;DHT22;352;48.626;9.238;2023-06-22T04:31:54;20.80;99.90
736;DHT22;352;48.626;9.238;2023-06-22T04:34:23;20.90;99.90
736;DHT22;352;48.626;9.238;2023-06-22T04:36:53;20.90;99.90
736;DHT22;352;48.626;9.238;2023-06-22T04:39:20;21.00;99.90
736;DHT22;352;48.626;9.238;2023-06-22T04:41:46;21.00;99.90
736;DHT22;352;48.626;9.238;2023-06-22T04:44:14;21.00;99.90
736;DHT22;352;48.626;9.238;2023-06-22T04:46:49;20.90;99.90
736;DHT22;352;48.626;9.238;2023-06-22T04:49:20;20.90;99.90
736;DHT22;352;48.626;9.238;2023-06-22T04:51:47;20.90;99.90
736;DHT22;352;48.626;9.238;2023-06-22T04:54:15;21.00;99.90
736;DHT22;352;48.626;9.238;2023-06-22T04:56:42;21.10;99.90
736;DHT22;352;48.626;9.238;2023-06-22T04:59:08;21.10;99.90
736;DHT22;352;48.626;9.238;2023-06-22T05:01:38;21.10;99.90
736;DHT22;352;48.626;9.238;2023-06-22T05:04:05;21.20;99.90
736;DHT22;352;48.626;9.238;2023-06-22T05:06:32;21.20;99.90
736;DHT22;352;48.626;9.238;2023-06-22T05:08:58;21.30;99.90
736;DHT22;352;48.626;9.238;2023-06-22T05:11:27;21.30;99.90
736;DHT22;352;48.626;9.238;2023-06-22T05:13:55;21.40;99.90
736;DHT22;352;48.626;9.238;2023-06-22T05:16:22;21.50;99.90
736;DHT22;352;48.626;9.238;2023-06-22T05:18:54;21.60;99.90
736;DHT22;352;48.626;9.238;2023-06-22T05:21:25;21.60;99.90
736;DHT22;352;48.626;9.238;2023-06-22T05:23:53;21.60;99.90
736;DHT22;352;48.626;9.238;2023-06-22T05:26:20;21.70;99.90
736;DHT22;352;48.626;9.238;2023-06-22T05:28:48;21.70;99.90
736;DHT22;352;48.626;9.238;2023-06-22T05:31:16;21.90;99.90
736;DHT22;352;48.626;9.238;2023-06-22T05:33:44;22.20;99.90
736;DHT22;352;48.626;9.238;2023-06-22T05:36:11;22.50;99.90
736;DHT22;352;48.626;9.238;2023-06-22T05:38:39;22.70;99.90
736;DHT22;352;48.626;9.238;2023-06-22T05:41:06;22.90;99.90
736;DHT22;352;48.626;9.238;2023-06-22T05:43:33;23.20;99.90
736;DHT22;352;48.626;9.238;2023-06-22T05:46:04;23.50;99.90
736;DHT22;352;48.626;9.238;2023-06-22T05:48:31;23.70;99.90
736;DHT22;352;48.626;9.238;2023-06-22T05:50:58;24.00;99.90
736;DHT22;352;48.626;9.238;2023-06-22T05:53:25;24.20;99.90
736;DHT22;352;48.626;9.238;2023-06-22T05:55:51;24.40;99.90
736;DHT22;352;48.626;9.238;2023-06-22T05:58:18;24.70;99.90
736;DHT22;352;48.626;9.238;2023-06-22T06:00:45;24.90;99.90
736;DHT22;352;48.626;9.238;2023-06-22T06:03:13;25.20;99.90
736;DHT22;352;48.626;9.238;2023-06-22T06:05:43;25.30;99.90
736;DHT22;352;48.626;9.238;2023-06-22T06:08:10;25.40;99.90
736;DHT22;352;48.626;9.238;2023-06-22T06:10:37;25.70;99.90
736;DHT22;352;48.626;9.238;2023-06-22T06:13:04;25.90;99.90
736;DHT22;352;48.626;9.238;2023-06-22T06:15:31;26.10;99.90
736;DHT22;352;48.626;9.238;2023-06-22T06:17:58;26.30;99.90
736;DHT22;352;48.626;9.238;2023-06-22T06:20:26;26.40;99.90
736;DHT22;352;48.626;9.238;2023-06-22T06:22:54;26.30;99.90
736;DHT22;352;48.626;9.238;2023-06-22T06:25:21;26.40;99.90
736;DHT22;352;48.626;9.238;2023-06-22T06:27:49;26.60;99.90
736;DHT22;352;48.626;9.238;2023-06-22T06:30:17;26.90;99.90
736;DHT22;352;48.626;9.238;2023-06-22T06:32:45;27.10;99.90
736;DHT22;352;48.626;9.238;2023-06-22T06:35:13;27.30;99.90
736;DHT22;352;48.626;9.238;2023-06-22T06:37:43;27.40;99.90
736;DHT22;352;48.626;9.238;2023-06-22T06:40:11;27.70;99.90
736;DHT22;352;48.626;9.238;2023-06-22T06:42:38;27.90;99.90
736;DHT22;352;48.626;9.238;2023-06-22T06:45:07;28.30;99.90
736;DHT22;352;48.626;9.238;2023-06-22T06:47:34;28.50;99.60
736;DHT22;352;48.626;9.238;2023-06-22T06:50:01;28.70;99.80
736;DHT22;352;48.626;9.238;2023-06-22T06:52:27;28.80;99.40
736;DHT22;352;48.626;9.238;2023-06-22T06:54:55;29.00;98.10
736;DHT22;352;48.626;9.238;2023-06-22T06:57:22;29.30;97.90
736;DHT22;352;48.626;9.238;2023-06-22T06:59:49;29.30;98.40
736;DHT22;352;48.626;9.238;2023-06-22T07:02:16;29.40;97.80
736;DHT22;352;48.626;9.238;2023-06-22T07:04:43;29.40;97.30
736;DHT22;352;48.626;9.238;2023-06-22T07:07:10;29.50;97.70
736;DHT22;352;48.626;9.238;2023-06-22T07:09:37;29.50;97.60
736;DHT22;352;48.626;9.238;2023-06-22T07:12:06;29.50;96.00
736;DHT22;352;48.626;9.238;2023-06-22T07:14:33;29.50;96.20
736;DHT22;352;48.626;9.238;2023-06-22T07:16:59;29.50;96.70
736;DHT22;352;48.626;9.238;2023-06-22T07:19:26;29.60;96.60
736;DHT22;352;48.626;9.238;2023-06-22T07:21:53;29.80;96.50
736;DHT22;352;48.626;9.238;2023-06-22T07:24:20;30.00;96.90
736;DHT22;352;48.626;9.238;2023-06-22T07:26:47;30.30;96.30
736;DHT22;352;48.626;9.238;2023-06-22T07:29:17;30.40;96.10
736;DHT22;352;48.626;9.238;2023-06-22T07:31:44;30.60;95.90
736;DHT22;352;48.626;9.238;2023-06-22T07:34:11;30.70;94.20
736;DHT22;352;48.626;9.238;2023-06-22T07:36:37;30.80;93.40
736;DHT22;352;48.626;9.238;2023-06-22T07:39:05;31.00;93.50
736;DHT22;352;48.626;9.238;2023-06-22T07:41:32;31.40;92.80
736;DHT22;352;48.626;9.238;2023-06-22T07:43:59;31.60;92.20
736;DHT22;352;48.626;9.238;2023-06-22T07:46:27;31.50;91.80
736;DHT22;352;48.626;9.238;2023-06-22T07:48:55;31.70;92.80
736;DHT22;352;48.626;9.238;2023-06-22T07:51:22;31.70;92.00
736;DHT22;352;48.626;9.238;2023-06-22T07:53:49;31.80;91.00
736;DHT22;352;48.626;9.238;2023-06-22T07:56:16;32.10;91.10
736;DHT22;352;48.626;9.238;2023-06-22T07:58:44;32.40;90.50
736;DHT22;352;48.626;9.238;2023-06-22T08:01:11;32.40;90.80
736;DHT22;352;48.626;9.238;2023-06-22T08:03:39;32.30;90.30
736;DHT22;352;48.626;9.238;2023-06-22T08:06:07;32.60;90.20
736;DHT22;352;48.626;9.238;2023-06-22T08:08:34;32.70;89.00
736;DHT22;352;48.626;9.238;2023-06-22T08:11:01;32.90;90.00
736;DHT22;352;48.626;9.238;2023-06-22T08:13:28;33.10;88.90
736;DHT22;352;48.626;9.238;2023-06-22T08:15:54;33.20;90.00
736;DHT22;352;48.626;9.238;2023-06-22T08:18:21;33.40;91.50
736;DHT22;352;48.626;9.238;2023-06-22T08:20:49;33.70;91.00
736;DHT22;352;48.626;9.238;2023-06-22T08:23:16;34.10;90.30
736;DHT22;352;48.626;9.238;2023-06-22T08:25:43;34.40;90.50
736;DHT22;352;48.626;9.238;2023-06-22T08:28:10;34.70;90.30
736;DHT22;352;48.626;9.238;2023-06-22T08:30:36;34.80;85.10
736;DHT22;352;48.626;9.238;2023-06-22T08:33:03;34.90;86.50
736;DHT22;352;48.626;9.238;2023-06-22T08:35:30;35.00;85.90
736;DHT22;352;48.626;9.238;2023-06-22T08:37:58;35.20;84.00
736;DHT22;352;48.626;9.238;2023-06-22T08:40:25;35.40;85.40
736;DHT22;352;48.626;9.238;2023-06-22T08:42:52;35.60;82.60
736;DHT22;352;48.626;9.238;2023-06-22T08:45:19;35.90;83.20
736;DHT22;352;48.626;9.238;2023-06-22T08:47:46;35.90;81.70
736;DHT22;352;48.626;9.238;2023-06-22T08:50:13;36.00;79.40
736;DHT22;352;48.626;9.238;2023-06-22T08:52:40;36.20;78.10
736;DHT22;352;48.626;9.238;2023-06-22T08:55:09;36.40;76.80
736;DHT22;352;48.626;9.238;2023-06-22T08:57:36;36.30;76.20
736;DHT22;352;48.626;9.238;2023-06-22T09:00:06;36.40;75.60
736;DHT22;352;48.626;9.238;2023-06-22T09:02:40;36.70;72.80
736;DHT22;352;48.626;9.238;2023-06-22T09:05:07;36.80;72.80
736;DHT22;352;48.626;9.238;2023-06-22T09:07:34;37.00;75.80
736;DHT22;352;48.626;9.238;2023-06-22T09:10:01;37.20;72.50
736;DHT22;352;48.626;9.238;2023-06-22T09:12:31;37.00;69.80
736;DHT22;352;48.626;9.238;2023-06-22T09:14:58;36.60;73.00
736;DHT22;352;48.626;9.238;2023-06-22T09:17:26;36.40;73.60
736;DHT22;352;48.626;9.238;2023-06-22T09:19:53;36.40;73.60
736;DHT22;352;48.626;9.238;2023-06-22T09:22:20;36.40;73.70
736;DHT22;352;48.626;9.238;2023-06-22T09:24:46;36.70;72.80
736;DHT22;352;48.626;9.238;2023-06-22T09:27:13;36.80;71.60
736;DHT22;352;48.626;9.238;2023-06-22T09:29:41;37.00;71.90
736;DHT22;352;48.626;9.238;2023-06-22T09:32:08;37.20;71.50
736;DHT22;352;48.626;9.238;2023-06-22T09:34:35;37.40;68.80
736;DHT22;352;48.626;9.238;2023-06-22T09:37:02;37.30;70.40
736;DHT22;352;48.626;9.238;2023-06-22T09:39:28;37.40;71.60
736;DHT22;352;48.626;9.238;2023-06-22T09:41:55;37.30;68.80
736;DHT22;352;48.626;9.238;2023-06-22T09:44:22;37.30;73.20
736;DHT22;352;48.626;9.238;2023-06-22T09:46:50;37.50;69.80
736;DHT22;352;48.626;9.238;2023-06-22T09:49:16;37.50;68.40
736;DHT22;352;48.626;9.238;2023-06-22T09:51:43;37.50;67.90
736;DHT22;352;48.626;9.238;2023-06-22T09:54:10;37.60;67.00
736;DHT22;352;48.626;9.238;2023-06-22T09:56:36;37.60;68.70
736;DHT22;352;48.626;9.238;2023-06-22T09:59:03;37.60;70.20
736;DHT22;352;48.626;9.238;2023-06-22T10:01:30;37.50;68.30
736;DHT22;352;48.626;9.238;2023-06-22T10:03:58;37.40;67.40
736;DHT22;352;48.626;9.238;2023-06-22T10:06:25;37.30;66.80
736;DHT22;352;48.626;9.238;2023-06-22T10:08:51;36.90;66.90
736;DHT22;352;48.626;9.238;2023-06-22T10:11:18;36.50;67.90
736;DHT22;352;48.626;9.238;2023-06-22T10:13:45;36.20;69.40
736;DHT22;352;48.626;9.238;2023-06-22T10:16:11;35.80;70.20
736;DHT22;352;48.626;9.238;2023-06-22T10:18:38;35.50;71.70
736;DHT22;352;48.626;9.238;2023-06-22T10:21:06;35.30;70.50
736;DHT22;352;48.626;9.238;2023-06-22T10:23:33;35.30;72.20
736;DHT22;352;48.626;9.238;2023-06-22T10:25:59;35.30;71.70
736;DHT22;352;48.626;9.238;2023-06-22T10:28:26;35.60;72.80
736;DHT22;352;48.626;9.238;2023-06-22T10:30:53;35.80;70.80
736;DHT22;352;48.626;9.238;2023-06-22T10:33:20;35.70;70.70
736;DHT22;352;48.626;9.238;2023-06-22T10:35:47;35.60;71.70
736;DHT22;352;48.626;9.238;2023-06-22T10:38:15;35.80;71.70
736;DHT22;352;48.626;9.238;2023-06-22T10:40:42;35.80;71.90
736;DHT22;352;48.626;9.238;2023-06-22T10:43:13;35.80;71.50
736;DHT22;352;48.626;9.238;2023-06-22T10:45:46;35.80;70.80
736;DHT22;352;48.626;9.238;2023-06-22T10:48:13;35.80;71.30
736;DHT22;352;48.626;9.238;2023-06-22T10:50:39;35.70;70.60
736;DHT22;352;48.626;9.238;2023-06-22T10:53:06;35.60;71.50
736;DHT22;352;48.626;9.238;2023-06-22T10:55:34;35.60;71.40
736;DHT22;352;48.626;9.238;2023-06-22T10:58:01;35.50;71.10
736;DHT22;352;48.626;9.238;2023-06-22T11:00:28;35.40;70.60
736;DHT22;352;48.626;9.238;2023-06-22T11:02:54;35.30;71.20
736;DHT22;352;48.626;9.238;2023-06-22T11:05:22;35.20;72.40
736;DHT22;352;48.626;9.238;2023-06-22T11:07:48;35.20;68.90
736;DHT22;352;48.626;9.238;2023-06-22T11:10:16;34.90;69.50
736;DHT22;352;48.626;9.238;2023-06-22T11:12:44;34.80;71.60
736;DHT22;352;48.626;9.238;2023-06-22T11:15:11;34.70;71.50
736;DHT22;352;48.626;9.238;2023-06-22T11:17:37;34.70;71.90
736;DHT22;352;48.626;9.238;2023-06-22T11:20:05;34.70;72.90
736;DHT22;352;48.626;9.238;2023-06-22T11:22:36;34.60;73.90
736;DHT22;352;48.626;9.238;2023-06-22T11:25:03;34.50;74.60
736;DHT22;352;48.626;9.238;2023-06-22T11:27:30;34.40;74.10
736;DHT22;352;48.626;9.238;2023-06-22T11:29:58;34.30;74.60
736;DHT22;352;48.626;9.238;2023-06-22T11:32:26;34.40;75.40
736;DHT22;352;48.626;9.238;2023-06-22T11:34:52;34.30;74.70
736;DHT22;352;48.626;9.238;2023-06-22T11:37:19;34.40;74.90
736;DHT22;352;48.626;9.238;2023-06-22T11:39:46;34.40;72.90
736;DHT22;352;48.626;9.238;2023-06-22T11:42:12;34.30;73.00
736;DHT22;352;48.626;9.238;2023-06-22T11:44:39;34.20;72.70
736;DHT22;352;48.626;9.238;2023-06-22T11:47:07;34.10;72.70
736;DHT22;352;48.626;9.238;2023-06-22T11:49:34;34.00;71.50
736;DHT22;352;48.626;9.238;2023-06-22T11:52:01;33.90;72.30
736;DHT22;352;48.626;9.238;2023-06-22T11:54:28;33.70;72.70
736;DHT22;352;48.626;9.238;2023-06-22T11:56:54;33.70;73.90
736;DHT22;352;48.626;9.238;2023-06-22T11:59:21;33.70;74.20
736;DHT22;352;48.626;9.238;2023-06-22T12:01:48;33.70;76.00
736;DHT22;352;48.626;9.238;2023-06-22T12:04:17;33.70;76.80
736;DHT22;352;48.626;9.238;2023-06-22T12:06:44;33.70;77.00
736;DHT22;352;48.626;9.238;2023-06-22T12:09:11;33.70;75.60
736;DHT22;352;48.626;9.238;2023-06-22T12:11:39;33.70;75.80
736;DHT22;352;48.626;9.238;2023-06-22T12:14:05;33.60;73.50
736;DHT22;352;48.626;9.238;2023-06-22T12:16:32;33.60;73.70
736;DHT22;352;48.626;9.238;2023-06-22T12:18:59;33.60;77.30
736;DHT22;352;48.626;9.238;2023-06-22T12:21:27;33.60;76.70
736;DHT22;352;48.626;9.238;2023-06-22T12:23:54;33.60;75.00
736;DHT22;352;48.626;9.238;2023-06-22T12:26:21;33.50;74.70
736;DHT22;352;48.626;9.238;2023-06-22T12:28:48;33.30;75.00
736;DHT22;352;48.626;9.238;2023-06-22T12:31:14;33.30;80.10
736;DHT22;352;48.626;9.238;2023-06-22T12:33:41;33.30;80.70
736;DHT22;352;48.626;9.238;2023-06-22T12:36:08;33.30;81.40
736;DHT22;352;48.626;9.238;2023-06-22T12:38:36;33.20;79.40
736;DHT22;352;48.626;9.238;2023-06-22T12:41:03;33.20;79.10
736;DHT22;352;48.626;9.238;2023-06-22T12:43:29;33.20;80.40
736;DHT22;352;48.626;9.238;2023-06-22T12:45:56;33.10;81.40
736;DHT22;352;48.626;9.238;2023-06-22T12:48:23;33.10;82.80
736;DHT22;352;48.626;9.238;2023-06-22T12:50:50;33.10;82.30
736;DHT22;352;48.626;9.238;2023-06-22T12:53:17;33.10;83.50
736;DHT22;352;48.626;9.238;2023-06-22T12:55:45;33.20;82.10
736;DHT22;352;48.626;9.238;2023-06-22T12:58:12;33.10;84.90
736;DHT22;352;48.626;9.238;2023-06-22T13:00:39;33.10;82.50
736;DHT22;352;48.626;9.238;2023-06-22T13:03:05;33.00;82.40
736;DHT22;352;48.626;9.238;2023-06-22T13:05:32;33.00;85.10
736;DHT22;352;48.626;9.238;2023-06-22T13:08:00;33.00;83.60
736;DHT22;352;48.626;9.238;2023-06-22T13:10:27;32.90;83.30
736;DHT22;352;48.626;9.238;2023-06-22T13:12:55;32.90;83.90
736;DHT22;352;48.626;9.238;2023-06-22T13:15:26;32.90;86.00
736;DHT22;352;48.626;9.238;2023-06-22T13:17:53;32.90;85.20
736;DHT22;352;48.626;9.238;2023-06-22T13:20:20;32.90;85.50
736;DHT22;352;48.626;9.238;2023-06-22T13:22:46;33.00;83.90
736;DHT22;352;48.626;9.238;2023-06-22T13:25:13;33.00;83.30
736;DHT22;352;48.626;9.238;2023-06-22T13:27:44;33.10;82.70
736;DHT22;352;48.626;9.238;2023-06-22T13:30:13;33.20;82.30
736;DHT22;352;48.626;9.238;2023-06-22T13:32:40;33.20;83.90
736;DHT22;352;48.626;9.238;2023-06-22T13:35:08;33.20;81.90
736;DHT22;352;48.626;9.238;2023-06-22T13:37:35;33.20;83.20
736;DHT22;352;48.626;9.238;2023-06-22T13:40:02;33.20;81.30
736;DHT22;352;48.626;9.238;2023-06-22T13:42:31;33.20;84.60
736;DHT22;352;48.626;9.238;2023-06-22T13:44:57;33.20;81.70
736;DHT22;352;48.626;9.238;2023-06-22T13:47:25;33.20;81.90
736;DHT22;352;48.626;9.238;2023-06-22T13:49:52;33.20;85.00
736;DHT22;352;48.626;9.238;2023-06-22T13:52:19;33.10;81.40
736;DHT22;352;48.626;9.238;2023-06-22T13:54:45;33.10;83.80
736;DHT22;352;48.626;9.238;2023-06-22T13:57:12;33.10;82.90
736;DHT22;352;48.626;9.238;2023-06-22T13:59:39;33.10;84.30
736;DHT22;352;48.626;9.238;2023-06-22T14:02:06;33.00;82.10
736;DHT22;352;48.626;9.238;2023-06-22T14:04:34;33.00;82.70
736;DHT22;352;48.626;9.238;2023-06-22T14:07:01;33.00;82.70
736;DHT22;352;48.626;9.238;2023-06-22T14:09:27;32.90;81.90
736;DHT22;352;48.626;9.238;2023-06-22T14:11:54;32.80;82.60
736;DHT22;352;48.626;9.238;2023-06-22T14:14:22;32.90;84.10
736;DHT22;352;48.626;9.238;2023-06-22T14:16:48;32.80;84.20
736;DHT22;352;48.626;9.238;2023-06-22T14:19:17;32.80;86.60
736;DHT22;352;48.626;9.238;2023-06-22T14:21:44;32.80;81.90
736;DHT22;352;48.626;9.238;2023-06-22T14:24:11;32.80;90.60
736;DHT22;352;48.626;9.238;2023-06-22T14:26:38;32.80;83.90
736;DHT22;352;48.626;9.238;2023-06-22T14:29:05;32.80;87.20
736;DHT22;352;48.626;9.238;2023-06-22T14:31:31;32.70;84.10
736;DHT22;352;48.626;9.238;2023-06-22T14:34:00;32.70;84.10
736;DHT22;352;48.626;9.238;2023-06-22T14:36:28;32.80;84.10
736;DHT22;352;48.626;9.238;2023-06-22T14:38:56;32.80;85.00
736;DHT22;352;48.626;9.238;2023-06-22T14:41:22;32.80;86.60
736;DHT22;352;48.626;9.238;2023-06-22T14:43:50;32.80;86.70
736;DHT22;352;48.626;9.238;2023-06-22T14:46:18;32.80;85.10
736;DHT22;352;48.626;9.238;2023-06-22T14:48:45;32.80;86.00
736;DHT22;352;48.626;9.238;2023-06-22T14:51:12;32.80;85.90
736;DHT22;352;48.626;9.238;2023-06-22T14:53:40;32.80;87.70
736;DHT22;352;48.626;9.238;2023-06-22T14:56:08;32.70;88.90
736;DHT22;352;48.626;9.238;2023-06-22T14:58:35;32.80;89.40
736;DHT22;352;48.626;9.238;2023-06-22T15:01:02;32.80;87.60
736;DHT22;352;48.626;9.238;2023-06-22T15:03:30;32.70;86.80
736;DHT22;352;48.626;9.238;2023-06-22T15:05:57;32.70;85.60
736;DHT22;352;48.626;9.238;2023-06-22T15:08:25;32.70;81.10
736;DHT22;352;48.626;9.238;2023-06-22T15:10:52;32.70;79.30
736;DHT22;352;48.626;9.238;2023-06-22T15:13:20;32.70;81.00
736;DHT22;352;48.626;9.238;2023-06-22T15:15:48;32.60;79.00
736;DHT22;352;48.626;9.238;2023-06-22T15:18:15;32.60;75.70
736;DHT22;352;48.626;9.238;2023-06-22T15:20:43;32.60;73.60
736;DHT22;352;48.626;9.238;2023-06-22T15:23:11;32.50;72.10
736;DHT22;352;48.626;9.238;2023-06-22T15:25:38;32.50;69.90
736;DHT22;352;48.626;9.238;2023-06-22T15:28:05;32.40;68.30
736;DHT22;352;48.626;9.238;2023-06-22T15:30:33;32.30;68.20
736;DHT22;352;48.626;9.238;2023-06-22T15:33:00;32.30;69.80
736;DHT22;352;48.626;9.238;2023-06-22T15:35:27;32.20;69.40
736;DHT22;352;48.626;9.238;2023-06-22T15:37:54;32.10;69.40
736;DHT22;352;48.626;9.238;2023-06-22T15:40:20;32.10;68.50
736;DHT22;352;48.626;9.238;2023-06-22T15:42:49;32.00;68.90
736;DHT22;352;48.626;9.238;2023-06-22T15:45:16;32.00;70.70
736;DHT22;352;48.626;9.238;2023-06-22T15:47:44;32.00;69.40
736;DHT22;352;48.626;9.238;2023-06-22T15:50:11;31.90;67.70
736;DHT22;352;48.626;9.238;2023-06-22T15:52:39;31.80;66.90
736;DHT22;352;48.626;9.238;2023-06-22T15:55:06;31.70;67.50
736;DHT22;352;48.626;9.238;2023-06-22T15:57:34;31.70;66.30
736;DHT22;352;48.626;9.238;2023-06-22T16:00:02;31.70;67.80
736;DHT22;352;48.626;9.238;2023-06-22T16:02:30;31.60;66.40
736;DHT22;352;48.626;9.238;2023-06-22T16:04:58;31.60;67.40
736;DHT22;352;48.626;9.238;2023-06-22T16:07:26;31.60;65.90
736;DHT22;352;48.626;9.238;2023-06-22T16:09:53;31.50;66.60
736;DHT22;352;48.626;9.238;2023-06-22T16:12:20;31.50;67.90
736;DHT22;352;48.626;9.238;2023-06-22T16:14:46;31.40;66.80
736;DHT22;352;48.626;9.238;2023-06-22T16:17:13;31.30;67.00
736;DHT22;352;48.626;9.238;2023-06-22T16:19:40;31.20;68.50
736;DHT22;352;48.626;9.238;2023-06-22T16:22:08;31.20;67.90
736;DHT22;352;48.626;9.238;2023-06-22T16:24:35;31.10;68.80
736;DHT22;352;48.626;9.238;2023-06-22T16:27:01;31.10;70.80
736;DHT22;352;48.626;9.238;2023-06-22T16:29:28;31.10;69.70
736;DHT22;352;48.626;9.238;2023-06-22T16:31:55;31.00;70.20
736;DHT22;352;48.626;9.238;2023-06-22T16:34:21;30.90;71.80